Time;durP1;ratioP1;P1;durP2;ratioP2;P2;SDS_P1;SDS_P2;PMS_P1;PMS_P2;Temp;Humidity;BMP_temperature;BMP_pressure;BME280_temperature;BME280_humidity;BME280_pressure;Samples;Min_cycle;Max_cycle;Signal;HPM_P1;HPM_P2
2020/12/14 00:00:31;;;;;;;56.60;26.20;;;;;;;;;;5076188;28;20468;-74
2020/12/14 00:02:59;;;;;;;58.60;27.43;;;;;;;;;;5079345;28;20464;-74
2020/12/14 00:05:28;;;;;;;58.20;27.87;;;;;;;;;;5076712;28;20924;-74
2020/12/14 00:07:58;;;;;;;54.07;27.10;;;;;;;;;;5076181;28;20532;-72
2020/12/14 00:10:29;;;;;;;51.47;25.90;;;;;;;;;;5091848;28;20459;-73
2020/12/14 00:13:02;;;;;;;50.60;24.07;;;;;;;;;;5097125;28;20447;-74
2020/12/14 00:15:29;;;;;;;57.83;25.97;;;;;;;;;;5077022;28;20522;-74
2020/12/14 00:18:06;;;;;;;52.43;24.93;;;;;;;;;;5076746;28;20602;-73
2020/12/14 00:20:33;;;;;;;60.30;28.70;;;;;;;;;;5077552;28;20486;-74
2020/12/14 00:23:04;;;;;;;49.77;24.57;;;;;;;;;;5076334;28;20873;-74
2020/12/14 00:25:32;;;;;;;51.50;24.70;;;;;;;;;;5075857;28;20914;-74
2020/12/14 00:28:06;;;;;;;54.20;27.53;;;;;;;;;;5076018;28;20493;-74
2020/12/14 00:30:33;;;;;;;50.70;27.53;;;;;;;;;;5076738;28;20464;-74
2020/12/14 00:33:02;;;;;;;59.43;27.60;;;;;;;;;;5077573;28;20440;-73
2020/12/14 00:35:30;;;;;;;50.90;24.83;;;;;;;;;;5076509;28;20464;-72
2020/12/14 00:37:57;;;;;;;49.63;26.63;;;;;;;;;;5075165;28;20445;-74
2020/12/14 00:40:32;;;;;;;59.63;25.93;;;;;;;;;;5074885;28;20445;-73
2020/12/14 00:43:00;;;;;;;56.93;24.57;;;;;;;;;;5075000;28;20448;-73
2020/12/14 00:45:32;;;;;;;52.53;26.50;;;;;;;;;;5094415;28;20494;-73
2020/12/14 00:47:59;;;;;;;64.17;26.80;;;;;;;;;;5095971;28;20494;-74
2020/12/14 00:50:26;;;;;;;53.27;26.80;;;;;;;;;;5083618;28;20461;-73
2020/12/14 00:52:57;;;;;;;52.13;27.37;;;;;;;;;;5096459;28;20486;-74
2020/12/14 00:55:24;;;;;;;57.67;26.60;;;;;;;;;;5078952;28;20456;-73
2020/12/14 00:57:52;;;;;;;55.70;27.77;;;;;;;;;;5089640;28;20473;-73
2020/12/14 01:00:23;;;;;;;51.30;25.57;;;;;;;;;;5076204;28;20468;-74
2020/12/14 01:02:50;;;;;;;50.53;25.70;;;;;;;;;;5075793;28;20518;-74
2020/12/14 01:05:18;;;;;;;58.50;27.27;;;;;;;;;;5076637;28;20611;-74
2020/12/14 01:07:48;;;;;;;56.27;29.47;;;;;;;;;;5076351;28;20611;-74
2020/12/14 01:10:15;;;;;;;66.83;29.47;;;;;;;;;;5076324;28;20457;-75
2020/12/14 01:12:48;;;;;;;50.23;27.60;;;;;;;;;;5075834;28;20466;-73
2020/12/14 01:15:15;;;;;;;59.30;26.27;;;;;;;;;;5075558;28;20461;-74
2020/12/14 01:17:49;;;;;;;50.00;26.67;;;;;;;;;;5075537;28;20468;-74
2020/12/14 01:20:18;;;;;;;53.60;27.57;;;;;;;;;;5077027;28;20858;-74
2020/12/14 01:22:45;;;;;;;52.93;28.30;;;;;;;;;;5075957;28;21014;-74
2020/12/14 01:25:13;;;;;;;51.10;27.63;;;;;;;;;;5076088;28;20453;-74
2020/12/14 01:27:43;;;;;;;54.97;25.80;;;;;;;;;;5076211;28;20505;-74
2020/12/14 01:30:10;;;;;;;44.47;23.57;;;;;;;;;;5077136;28;20452;-74
2020/12/14 01:32:37;;;;;;;53.90;26.83;;;;;;;;;;5076275;28;20464;-74
2020/12/14 01:35:11;;;;;;;54.30;25.37;;;;;;;;;;5076134;28;20525;-74
2020/12/14 01:37:38;;;;;;;50.83;25.67;;;;;;;;;;5078146;28;20468;-73
2020/12/14 01:40:05;;;;;;;53.93;26.57;;;;;;;;;;5079654;28;20461;-74
2020/12/14 01:42:41;;;;;;;53.10;27.53;;;;;;;;;;5079130;28;20464;-73
2020/12/14 01:45:17;;;;;;;48.47;25.93;;;;;;;;;;5079623;28;20468;-73
2020/12/14 01:47:44;;;;;;;46.20;25.30;;;;;;;;;;5079309;28;20532;-74
2020/12/14 01:50:17;;;;;;;47.70;25.20;;;;;;;;;;5088384;28;20455;-75
2020/12/14 01:52:46;;;;;;;46.37;25.33;;;;;;;;;;5099578;28;20444;-74
2020/12/14 01:55:16;;;;;;;39.73;23.30;;;;;;;;;;5088715;28;20877;-74
2020/12/14 01:57:47;;;;;;;44.23;23.80;;;;;;;;;;5078895;28;20449;-72
2020/12/14 02:00:20;;;;;;;38.67;21.13;;;;;;;;;;5079100;28;20480;-72
2020/12/14 02:02:53;;;;;;;35.37;21.90;;;;;;;;;;5079387;28;20548;-71
2020/12/14 02:05:21;;;;;;;35.57;20.93;;;;;;;;;;5079370;28;20544;-73
2020/12/14 02:07:48;;;;;;;37.77;21.27;;;;;;;;;;5078508;28;20480;-74
2020/12/14 02:10:16;;;;;;;36.47;19.93;;;;;;;;;;5078707;28;20452;-72
2020/12/14 02:12:43;;;;;;;32.83;20.67;;;;;;;;;;5078264;28;20476;-73
2020/12/14 02:15:10;;;;;;;38.50;22.83;;;;;;;;;;5078950;28;20456;-74
2020/12/14 02:17:40;;;;;;;37.13;21.30;;;;;;;;;;5078580;28;20457;-73
2020/12/14 02:20:07;;;;;;;32.93;20.00;;;;;;;;;;5078692;28;20735;-73
2020/12/14 02:22:35;;;;;;;28.40;18.37;;;;;;;;;;5078537;28;20445;-73
2020/12/14 02:25:11;;;;;;;30.30;18.80;;;;;;;;;;5078375;28;20460;-73
2020/12/14 02:27:39;;;;;;;29.70;19.70;;;;;;;;;;5078958;28;20480;-73
2020/12/14 02:30:09;;;;;;;31.67;19.57;;;;;;;;;;5078803;28;20456;-73
2020/12/14 02:32:39;;;;;;;33.67;20.37;;;;;;;;;;5078786;28;20453;-74
2020/12/14 02:35:07;;;;;;;32.43;20.77;;;;;;;;;;5084998;28;20525;-74
2020/12/14 02:37:37;;;;;;;32.80;19.00;;;;;;;;;;5078425;28;20449;-73
2020/12/14 02:40:06;;;;;;;28.83;17.87;;;;;;;;;;5078873;28;20471;-74
2020/12/14 02:42:36;;;;;;;31.10;18.17;;;;;;;;;;5078602;28;20465;-73
2020/12/14 02:45:04;;;;;;;29.97;17.80;;;;;;;;;;5078614;28;20468;-74
2020/12/14 02:47:31;;;;;;;30.27;18.60;;;;;;;;;;5078432;28;20488;-73
2020/12/14 02:50:01;;;;;;;26.50;17.13;;;;;;;;;;5077937;28;20457;-73
2020/12/14 02:52:28;;;;;;;25.30;17.03;;;;;;;;;;5085815;28;20722;-73
2020/12/14 02:54:56;;;;;;;29.53;18.30;;;;;;;;;;5092720;28;20448;-73
2020/12/14 02:57:23;;;;;;;25.63;16.30;;;;;;;;;;5098467;28;20448;-74
2020/12/14 02:59:51;;;;;;;24.90;15.73;;;;;;;;;;5098535;28;20482;-74
2020/12/14 03:02:21;;;;;;;25.67;15.90;;;;;;;;;;5097857;28;20517;-73
2020/12/14 03:04:48;;;;;;;26.40;17.00;;;;;;;;;;5098591;28;20467;-73
2020/12/14 03:07:15;;;;;;;26.07;17.03;;;;;;;;;;5098344;28;20514;-73
2020/12/14 03:09:43;;;;;;;25.57;17.20;;;;;;;;;;5098627;28;20467;-73
2020/12/14 03:12:11;;;;;;;26.33;16.00;;;;;;;;;;5098364;28;20459;-73
2020/12/14 03:14:39;;;;;;;25.77;16.73;;;;;;;;;;5098214;28;20459;-73
2020/12/14 03:17:06;;;;;;;26.17;17.17;;;;;;;;;;5098895;28;20495;-73
2020/12/14 03:19:33;;;;;;;28.33;18.13;;;;;;;;;;5098766;28;20452;-73
2020/12/14 03:22:00;;;;;;;24.33;15.67;;;;;;;;;;5097532;28;20448;-73
2020/12/14 03:24:27;;;;;;;28.63;16.53;;;;;;;;;;5098233;28;20464;-73
2020/12/14 03:26:54;;;;;;;25.63;15.53;;;;;;;;;;5098203;28;20492;-73
2020/12/14 03:29:21;;;;;;;23.30;14.80;;;;;;;;;;5097869;28;20730;-73
2020/12/14 03:31:49;;;;;;;26.10;15.00;;;;;;;;;;5097776;28;20460;-73
2020/12/14 03:34:16;;;;;;;27.40;15.27;;;;;;;;;;5098112;28;20874;-73
2020/12/14 03:36:43;;;;;;;25.40;14.70;;;;;;;;;;5097803;28;20460;-73
2020/12/14 03:39:10;;;;;;;26.07;15.70;;;;;;;;;;5097560;28;20456;-73
2020/12/14 03:41:40;;;;;;;21.13;13.77;;;;;;;;;;5097524;28;20486;-74
2020/12/14 03:44:09;;;;;;;21.30;13.57;;;;;;;;;;5098194;28;20833;-73
2020/12/14 03:46:36;;;;;;;23.43;14.13;;;;;;;;;;5098385;28;20498;-73
2020/12/14 03:49:04;;;;;;;22.67;13.57;;;;;;;;;;5097802;28;20443;-73
2020/12/14 03:51:31;;;;;;;22.23;13.93;;;;;;;;;;5097700;28;20466;-73
2020/12/14 03:53:58;;;;;;;20.70;14.43;;;;;;;;;;5098022;28;20448;-74
2020/12/14 03:56:26;;;;;;;22.03;13.10;;;;;;;;;;5097441;28;20888;-73
2020/12/14 03:58:53;;;;;;;21.40;13.03;;;;;;;;;;5096932;28;20452;-73
2020/12/14 04:01:21;;;;;;;20.10;13.77;;;;;;;;;;5097603;28;20455;-74
2020/12/14 04:03:48;;;;;;;24.40;13.13;;;;;;;;;;5096966;28;20456;-74
2020/12/14 04:06:21;;;;;;;24.23;14.27;;;;;;;;;;5096883;28;20487;-74
2020/12/14 04:08:49;;;;;;;24.20;14.50;;;;;;;;;;5097450;28;20477;-74
2020/12/14 04:11:19;;;;;;;22.40;12.83;;;;;;;;;;5098389;28;20533;-74
2020/12/14 04:13:47;;;;;;;21.50;13.77;;;;;;;;;;5097705;28;20454;-74
2020/12/14 04:16:14;;;;;;;19.50;12.77;;;;;;;;;;5096400;28;20461;-74
2020/12/14 04:18:41;;;;;;;22.07;13.70;;;;;;;;;;5096790;28;20448;-74
2020/12/14 04:21:08;;;;;;;22.60;12.90;;;;;;;;;;5096511;28;20455;-73
2020/12/14 04:23:36;;;;;;;20.53;12.70;;;;;;;;;;5096622;28;20547;-73
2020/12/14 04:26:03;;;;;;;18.50;12.27;;;;;;;;;;5095198;28;20888;-74
2020/12/14 04:28:30;;;;;;;20.80;13.30;;;;;;;;;;5096811;28;20500;-74
2020/12/14 04:31:00;;;;;;;21.07;13.33;;;;;;;;;;5087288;28;20934;-74
2020/12/14 04:33:30;;;;;;;22.53;13.73;;;;;;;;;;5087089;28;20941;-74
2020/12/14 04:35:57;;;;;;;22.03;12.80;;;;;;;;;;5108902;27;20464;-74
2020/12/14 04:38:24;;;;;;;18.03;12.07;;;;;;;;;;5077819;28;20445;-74
2020/12/14 04:40:52;;;;;;;18.27;11.53;;;;;;;;;;5083438;28;20459;-75
2020/12/14 04:43:19;;;;;;;18.50;11.63;;;;;;;;;;5096222;28;20452;-74
2020/12/14 04:45:47;;;;;;;17.10;12.23;;;;;;;;;;5092796;28;20460;-74
2020/12/14 04:48:15;;;;;;;18.93;12.63;;;;;;;;;;5095954;28;20483;-74
2020/12/14 04:50:42;;;;;;;20.43;13.17;;;;;;;;;;5094658;28;20456;-74
2020/12/14 04:53:09;;;;;;;20.23;12.57;;;;;;;;;;5090992;28;20450;-73
2020/12/14 04:55:36;;;;;;;19.90;12.77;;;;;;;;;;5089912;28;20910;-74
2020/12/14 04:58:05;;;;;;;22.23;13.17;;;;;;;;;;5096720;28;20462;-74
2020/12/14 05:00:32;;;;;;;19.07;11.63;;;;;;;;;;5096569;28;20484;-74
2020/12/14 05:03:01;;;;;;;17.73;11.87;;;;;;;;;;5091698;28;20449;-74
2020/12/14 05:05:28;;;;;;;16.00;11.10;;;;;;;;;;5078473;28;20438;-74
2020/12/14 05:07:56;;;;;;;20.50;13.37;;;;;;;;;;5075402;28;20476;-74
2020/12/14 05:10:24;;;;;;;16.13;11.90;;;;;;;;;;5085767;28;20539;-74
2020/12/14 05:12:51;;;;;;;18.33;12.00;;;;;;;;;;5095152;28;20478;-74
2020/12/14 05:15:19;;;;;;;21.30;12.23;;;;;;;;;;5096147;28;20444;-73
2020/12/14 05:17:46;;;;;;;18.97;12.53;;;;;;;;;;5096099;28;20463;-73
2020/12/14 05:20:14;;;;;;;20.10;12.07;;;;;;;;;;5093128;28;20722;-73
2020/12/14 05:22:55;;;;;;;19.30;11.00;;;;;;;;;;5075959;28;20449;-73
2020/12/14 05:25:23;;;;;;;18.40;11.33;;;;;;;;;;5075688;28;20885;-73
2020/12/14 05:28:00;;;;;;;17.13;10.97;;;;;;;;;;5076590;28;20481;-74
2020/12/14 05:30:34;;;;;;;23.27;11.83;;;;;;;;;;5076967;28;20525;-74
2020/12/14 05:33:01;;;;;;;17.27;11.07;;;;;;;;;;5088625;28;20448;-74
2020/12/14 05:35:32;;;;;;;15.90;11.07;;;;;;;;;;5077057;28;20461;-74
2020/12/14 05:38:13;;;;;;;15.60;9.93;;;;;;;;;;5076396;28;20463;-73
2020/12/14 05:40:41;;;;;;;14.40;10.57;;;;;;;;;;5072904;28;20464;-75
2020/12/14 05:43:09;;;;;;;14.63;9.90;;;;;;;;;;5074937;28;20453;-74
2020/12/14 05:45:37;;;;;;;16.20;10.50;;;;;;;;;;5075518;28;20457;-74
2020/12/14 05:48:04;;;;;;;16.13;10.50;;;;;;;;;;5074428;28;20497;-74
2020/12/14 05:50:31;;;;;;;14.67;10.27;;;;;;;;;;5074798;28;20452;-74
2020/12/14 05:52:59;;;;;;;15.53;10.50;;;;;;;;;;5074601;28;20461;-74
2020/12/14 05:55:27;;;;;;;13.00;9.10;;;;;;;;;;5083868;28;20456;-75
2020/12/14 05:57:54;;;;;;;14.80;10.10;;;;;;;;;;5094368;28;20525;-74
2020/12/14 06:00:21;;;;;;;15.47;10.43;;;;;;;;;;5094659;28;20444;-73
2020/12/14 06:02:52;;;;;;;14.30;10.47;;;;;;;;;;5094650;28;20732;-74
2020/12/14 06:05:21;;;;;;;13.67;10.00;;;;;;;;;;5094964;28;20918;-75
2020/12/14 06:07:53;;;;;;;14.57;8.87;;;;;;;;;;5094276;28;20552;-74
2020/12/14 06:10:24;;;;;;;12.07;8.73;;;;;;;;;;5093961;28;20455;-74
2020/12/14 06:12:53;;;;;;;14.57;9.70;;;;;;;;;;5093913;28;20844;-74
2020/12/14 06:15:20;;;;;;;12.63;8.70;;;;;;;;;;5093283;28;20458;-74
2020/12/14 06:17:48;;;;;;;13.90;8.47;;;;;;;;;;5092631;28;20448;-74
2020/12/14 06:20:17;;;;;;;14.57;9.03;;;;;;;;;;5093195;28;20520;-74
2020/12/14 06:22:45;;;;;;;16.70;9.10;;;;;;;;;;5092798;28;20444;-74
2020/12/14 06:25:14;;;;;;;13.17;8.73;;;;;;;;;;5096125;28;20466;-74
2020/12/14 06:27:42;;;;;;;13.30;9.30;;;;;;;;;;5097193;28;20487;-74
2020/12/14 06:30:27;;;;;;;15.47;9.90;;;;;;;;;;5089560;28;20473;-73
2020/12/14 06:32:59;;;;;;;13.00;8.57;;;;;;;;;;5076464;28;20573;-74
2020/12/14 06:35:41;;;;;;;14.23;9.13;;;;;;;;;;5076062;28;20601;-73
2020/12/14 06:38:08;;;;;;;13.10;8.90;;;;;;;;;;5093140;28;20539;-74
2020/12/14 06:40:52;;;;;;;13.60;8.60;;;;;;;;;;5097160;28;20470;-74
2020/12/14 06:43:28;;;;;;;13.67;9.00;;;;;;;;;;5096353;28;20468;-73
2020/12/14 06:46:01;;;;;;;10.70;8.40;;;;;;;;;;5091205;28;20463;-74
2020/12/14 06:48:54;;;;;;;13.27;8.17;;;;;;;;;;5095848;28;20480;-74
2020/12/14 06:51:27;;;;;;;12.83;8.70;;;;;;;;;;5097267;28;20909;-75
2020/12/14 06:53:54;;;;;;;10.70;8.23;;;;;;;;;;5075921;28;20457;-74
2020/12/14 06:56:51;;;;;;;12.40;8.80;;;;;;;;;;5076182;28;20526;-74
2020/12/14 06:59:28;;;;;;;10.37;8.10;;;;;;;;;;4997481;28;20454;-74
2020/12/14 07:01:57;;;;;;;9.03;7.20;;;;;;;;;;5069254;28;20447;-73
2020/12/14 07:04:39;;;;;;;10.00;7.10;;;;;;;;;;5096527;28;20563;-75
2020/12/14 07:07:24;;;;;;;13.73;7.60;;;;;;;;;;5096520;28;20498;-75
2020/12/14 07:13:05;;;;;;;;;;;;;;;;;;;;;
2020/12/14 07:15:55;;;;;;;9.10;6.70;;;;;;;;;;5091799;28;20451;-74
2020/12/14 07:18:23;;;;;;;11.47;9.57;;;;;;;;;;5080094;28;21114;-74
2020/12/14 07:21:06;;;;;;;10.80;8.33;;;;;;;;;;5085938;28;20898;-75
2020/12/14 07:23:36;;;;;;;11.57;7.90;;;;;;;;;;5076151;28;20564;-73
2020/12/14 07:26:04;;;;;;;10.93;7.37;;;;;;;;;;5076953;28;20544;-74
2020/12/14 07:28:34;;;;;;;12.93;8.10;;;;;;;;;;5074336;28;20559;-74
2020/12/14 07:31:04;;;;;;;13.40;7.77;;;;;;;;;;5074750;28;21011;-74
2020/12/14 07:33:34;;;;;;;11.50;7.87;;;;;;;;;;5076357;28;20508;-74
2020/12/14 07:36:06;;;;;;;11.27;7.67;;;;;;;;;;5076704;28;20457;-74
2020/12/14 07:38:33;;;;;;;10.30;6.40;;;;;;;;;;5076696;28;20484;-74
2020/12/14 07:41:12;;;;;;;12.37;6.60;;;;;;;;;;5075860;28;20471;-74
2020/12/14 07:43:53;;;;;;;9.10;6.40;;;;;;;;;;5098085;27;20458;-75
2020/12/14 07:46:21;;;;;;;9.90;7.00;;;;;;;;;;5084155;28;20459;-74
2020/12/14 07:48:59;;;;;;;12.13;7.77;;;;;;;;;;5095005;28;20448;-74
2020/12/14 07:51:27;;;;;;;11.10;7.40;;;;;;;;;;5102561;28;20516;-74
2020/12/14 07:54:28;;;;;;;10.33;7.83;;;;;;;;;;5095883;28;20470;-73
2020/12/14 07:59:56;;;;;;;9.60;6.60;;;;;;;;;;5072856;28;20446;-72
2020/12/14 08:02:24;;;;;;;8.03;6.63;;;;;;;;;;5095069;28;20527;-74
2020/12/14 08:04:59;;;;;;;9.90;6.80;;;;;;;;;;5094870;28;20980;-74
2020/12/14 08:07:29;;;;;;;8.57;6.33;;;;;;;;;;5095891;28;20492;-74
2020/12/14 08:09:56;;;;;;;8.57;6.20;;;;;;;;;;5081313;28;20457;-73
2020/12/14 08:12:25;;;;;;;8.93;5.63;;;;;;;;;;5078605;28;20460;-73
2020/12/14 08:14:52;;;;;;;8.00;6.03;;;;;;;;;;5075439;28;20524;-73
2020/12/14 08:17:20;;;;;;;9.87;6.80;;;;;;;;;;5075402;28;20544;-73
2020/12/14 08:19:47;;;;;;;9.33;6.20;;;;;;;;;;5075617;28;20582;-72
2020/12/14 08:22:20;;;;;;;9.07;7.00;;;;;;;;;;5079980;28;20492;-74
2020/12/14 08:24:56;;;;;;;7.80;6.00;;;;;;;;;;5079341;28;20464;-73
2020/12/14 08:27:31;;;;;;;10.53;6.40;;;;;;;;;;5075232;28;20485;-73
2020/12/14 08:30:01;;;;;;;8.17;6.27;;;;;;;;;;5074435;28;20441;-73
2020/12/14 08:32:41;;;;;;;12.10;7.50;;;;;;;;;;5077347;28;20445;-76
2020/12/14 08:35:24;;;;;;;8.27;6.23;;;;;;;;;;5082752;28;20952;-73
2020/12/14 08:37:52;;;;;;;9.93;6.00;;;;;;;;;;5074778;28;20523;-74
2020/12/14 08:40:23;;;;;;;7.83;5.43;;;;;;;;;;5075791;28;20457;-74
2020/12/14 08:42:50;;;;;;;8.70;5.90;;;;;;;;;;5087253;28;20555;-73
2020/12/14 08:45:32;;;;;;;9.13;5.77;;;;;;;;;;5076478;28;20471;-75
2020/12/14 08:48:00;;;;;;;9.47;5.83;;;;;;;;;;5080879;28;20492;-73
2020/12/14 08:50:31;;;;;;;11.57;6.60;;;;;;;;;;5088803;28;20441;-73
2020/12/14 08:53:01;;;;;;;8.37;5.47;;;;;;;;;;5073805;28;20457;-73
2020/12/14 08:55:37;;;;;;;9.07;4.73;;;;;;;;;;5075284;28;21037;-72
2020/12/14 08:58:13;;;;;;;11.00;5.97;;;;;;;;;;5074323;28;20460;-73
2020/12/14 09:01:05;;;;;;;7.07;5.27;;;;;;;;;;5088160;28;20467;-74
2020/12/14 09:03:46;;;;;;;10.10;5.50;;;;;;;;;;5088424;28;20771;-74
2020/12/14 09:06:24;;;;;;;24.83;6.63;;;;;;;;;;5074309;28;20985;-73
2020/12/14 09:09:01;;;;;;;13.67;6.43;;;;;;;;;;5094427;28;20435;-74
2020/12/14 09:11:33;;;;;;;7.57;6.00;;;;;;;;;;5094750;28;20782;-74
2020/12/14 09:14:03;;;;;;;6.90;5.80;;;;;;;;;;5094887;28;20546;-74
2020/12/14 09:16:31;;;;;;;8.20;5.13;;;;;;;;;;5094345;28;20550;-74
2020/12/14 09:19:06;;;;;;;7.37;5.50;;;;;;;;;;5095161;28;20453;-74
2020/12/14 09:21:33;;;;;;;9.27;5.27;;;;;;;;;;5087804;28;20464;-73
2020/12/14 09:24:23;;;;;;;7.83;5.00;;;;;;;;;;5086698;28;20452;-73
2020/12/14 09:26:55;;;;;;;7.83;5.57;;;;;;;;;;5083885;28;20879;-74
2020/12/14 09:29:25;;;;;;;8.40;5.50;;;;;;;;;;5073605;28;20464;-74
2020/12/14 09:32:06;;;;;;;9.23;4.57;;;;;;;;;;5091062;28;20553;-74
2020/12/14 09:34:37;;;;;;;6.43;4.50;;;;;;;;;;5091156;28;20881;-74
2020/12/14 09:37:06;;;;;;;5.90;4.53;;;;;;;;;;5094581;28;20451;-73
2020/12/14 09:39:46;;;;;;;8.87;5.40;;;;;;;;;;5093801;28;20736;-74
2020/12/14 09:42:24;;;;;;;6.00;4.90;;;;;;;;;;5092682;28;20452;-74
2020/12/14 09:45:05;;;;;;;5.67;4.87;;;;;;;;;;5092227;28;20950;-75
2020/12/14 09:47:35;;;;;;;7.70;4.67;;;;;;;;;;5081229;28;20490;-74
2020/12/14 09:50:13;;;;;;;6.67;4.40;;;;;;;;;;5075072;28;20876;-73
2020/12/14 09:52:42;;;;;;;6.57;4.30;;;;;;;;;;5074781;28;21072;-74
2020/12/14 09:55:13;;;;;;;5.03;4.20;;;;;;;;;;5086590;28;20464;-73
2020/12/14 09:57:45;;;;;;;4.43;3.63;;;;;;;;;;5093329;28;20456;-73
2020/12/14 10:00:15;;;;;;;3.67;2.83;;;;;;;;;;5096119;28;20496;-73
2020/12/14 10:02:44;;;;;;;8.80;5.20;;;;;;;;;;5086383;28;20444;-73
2020/12/14 10:05:19;;;;;;;7.70;4.83;;;;;;;;;;5080454;28;20482;-74
2020/12/14 10:07:49;;;;;;;7.47;4.33;;;;;;;;;;5081234;28;20524;-72
2020/12/14 10:10:49;;;;;;;6.57;4.53;;;;;;;;;;5083782;28;20506;-73
2020/12/14 10:13:19;;;;;;;6.13;3.90;;;;;;;;;;5077086;28;20862;-74
2020/12/14 10:15:46;;;;;;;4.30;3.23;;;;;;;;;;5076432;28;20475;-73
2020/12/14 10:18:17;;;;;;;4.83;3.00;;;;;;;;;;5089266;28;20458;-73
2020/12/14 10:20:45;;;;;;;4.43;3.30;;;;;;;;;;5092809;28;20475;-74
2020/12/14 10:23:14;;;;;;;6.43;3.30;;;;;;;;;;5097265;28;20562;-73
2020/12/14 10:25:41;;;;;;;4.30;2.73;;;;;;;;;;5095250;28;20499;-72
2020/12/14 10:28:08;;;;;;;4.03;3.33;;;;;;;;;;5096388;28;20923;-73
2020/12/14 10:30:39;;;;;;;5.23;3.00;;;;;;;;;;5101892;28;20447;-73
2020/12/14 10:33:11;;;;;;;5.20;3.80;;;;;;;;;;5111577;28;20770;-73
2020/12/14 10:35:38;;;;;;;5.30;3.50;;;;;;;;;;5097098;28;20463;-72
2020/12/14 10:38:11;;;;;;;5.03;3.00;;;;;;;;;;5091284;28;20523;-73
2020/12/14 10:40:38;;;;;;;6.00;3.00;;;;;;;;;;5077342;28;20461;-72
2020/12/14 10:43:08;;;;;;;5.23;3.73;;;;;;;;;;5076693;28;20567;-73
2020/12/14 10:45:44;;;;;;;5.63;3.93;;;;;;;;;;5076937;28;20469;-74
2020/12/14 10:48:11;;;;;;;6.30;3.53;;;;;;;;;;5081017;28;20941;-73
2020/12/14 10:50:44;;;;;;;6.37;3.80;;;;;;;;;;5088447;28;20465;-73
2020/12/14 10:53:18;;;;;;;4.53;3.47;;;;;;;;;;5075228;28;20780;-74
2020/12/14 10:55:45;;;;;;;6.30;3.57;;;;;;;;;;5095522;28;20497;-73
2020/12/14 10:58:12;;;;;;;5.80;4.00;;;;;;;;;;5096279;28;20521;-72
2020/12/14 11:00:50;;;;;;;5.93;4.43;;;;;;;;;;5095128;28;21027;-73
2020/12/14 11:03:23;;;;;;;8.97;4.47;;;;;;;;;;5096819;28;20464;-73
2020/12/14 11:06:03;;;;;;;6.53;4.73;;;;;;;;;;5096267;28;20707;-73
2020/12/14 11:08:30;;;;;;;5.40;3.27;;;;;;;;;;5096001;28;20483;-73
2020/12/14 11:11:00;;;;;;;5.90;3.57;;;;;;;;;;5095175;28;20448;-72
2020/12/14 11:13:27;;;;;;;6.43;3.67;;;;;;;;;;5096366;28;20444;-72
2020/12/14 11:16:00;;;;;;;5.93;4.40;;;;;;;;;;5097934;28;20502;-73
2020/12/14 11:18:38;;;;;;;5.67;4.03;;;;;;;;;;5116469;27;20455;-73
2020/12/14 11:21:06;;;;;;;8.13;4.50;;;;;;;;;;5106295;27;20466;-72
2020/12/14 11:23:33;;;;;;;4.80;3.33;;;;;;;;;;5094285;28;20448;-73
2020/12/14 11:26:00;;;;;;;7.03;3.60;;;;;;;;;;5096019;28;20521;-73
2020/12/14 11:28:27;;;;;;;6.20;3.40;;;;;;;;;;5093071;28;21060;-72
2020/12/14 11:30:55;;;;;;;6.70;3.90;;;;;;;;;;5091179;28;20461;-73
2020/12/14 11:33:27;;;;;;;6.00;3.77;;;;;;;;;;5087251;28;20467;-73
2020/12/14 11:35:54;;;;;;;8.63;4.67;;;;;;;;;;5096079;28;20475;-74
2020/12/14 11:38:22;;;;;;;5.23;3.60;;;;;;;;;;5097227;28;20453;-72
2020/12/14 11:41:04;;;;;;;8.63;4.23;;;;;;;;;;5082141;28;20492;-73
2020/12/14 11:43:36;;;;;;;6.23;4.33;;;;;;;;;;5075693;28;20540;-73
2020/12/14 11:46:04;;;;;;;5.27;3.33;;;;;;;;;;5086007;28;20498;-72
2020/12/14 11:48:34;;;;;;;4.23;2.70;;;;;;;;;;5076168;28;20517;-73
2020/12/14 11:51:05;;;;;;;5.87;3.60;;;;;;;;;;5080396;28;20464;-72
2020/12/14 11:53:34;;;;;;;6.87;3.23;;;;;;;;;;5086242;28;20486;-73
2020/12/14 11:56:02;;;;;;;5.10;2.97;;;;;;;;;;5087610;28;20456;-72
2020/12/14 11:58:29;;;;;;;4.60;3.20;;;;;;;;;;5089550;28;20525;-73
2020/12/14 12:00:57;;;;;;;4.60;2.67;;;;;;;;;;5075564;28;20496;-73
2020/12/14 12:03:24;;;;;;;5.23;3.50;;;;;;;;;;5076327;28;20643;-73
2020/12/14 12:05:51;;;;;;;6.90;3.60;;;;;;;;;;5074357;28;20449;-73
2020/12/14 12:08:22;;;;;;;6.40;3.73;;;;;;;;;;5074524;28;20504;-73
2020/12/14 12:10:49;;;;;;;18.03;8.20;;;;;;;;;;5088073;28;20448;-73
2020/12/14 12:13:21;;;;;;;7.97;4.97;;;;;;;;;;5093744;28;20773;-74
2020/12/14 12:15:49;;;;;;;6.43;4.10;;;;;;;;;;5084645;28;20457;-73
2020/12/14 12:18:22;;;;;;;5.27;3.67;;;;;;;;;;5075410;28;20445;-73
2020/12/14 12:20:50;;;;;;;5.50;2.80;;;;;;;;;;5097826;28;20485;-73
2020/12/14 12:23:19;;;;;;;4.63;2.97;;;;;;;;;;5085599;28;20995;-73
2020/12/14 12:25:46;;;;;;;10.10;3.20;;;;;;;;;;5094421;28;20698;-73
2020/12/14 12:28:14;;;;;;;4.10;2.80;;;;;;;;;;5094961;28;21161;-73
2020/12/14 12:30:41;;;;;;;4.90;3.23;;;;;;;;;;5094680;28;20457;-74
2020/12/14 12:33:21;;;;;;;5.60;3.37;;;;;;;;;;5094418;28;20543;-74
2020/12/14 12:35:54;;;;;;;7.50;3.37;;;;;;;;;;5094426;28;20570;-72
2020/12/14 12:38:23;;;;;;;5.67;3.30;;;;;;;;;;5084207;28;20457;-73
2020/12/14 12:40:50;;;;;;;5.00;2.83;;;;;;;;;;5074317;28;20479;-72
2020/12/14 12:43:17;;;;;;;5.87;2.70;;;;;;;;;;5074350;28;20781;-73
2020/12/14 12:45:44;;;;;;;4.27;3.10;;;;;;;;;;5074236;28;20790;-73
2020/12/14 12:48:12;;;;;;;8.70;2.90;;;;;;;;;;5073806;28;20493;-72
2020/12/14 12:50:52;;;;;;;15.10;2.97;;;;;;;;;;5073783;28;20865;-73
2020/12/14 12:53:20;;;;;;;5.43;3.50;;;;;;;;;;5076585;28;20453;-72
2020/12/14 12:55:48;;;;;;;5.60;2.97;;;;;;;;;;5073487;28;20449;-73
2020/12/14 12:58:15;;;;;;;3.60;2.30;;;;;;;;;;5073632;28;20448;-73
2020/12/14 13:00:42;;;;;;;4.67;2.87;;;;;;;;;;5072565;28;20548;-73
2020/12/14 13:03:09;;;;;;;6.40;2.73;;;;;;;;;;5072436;28;20522;-72
2020/12/14 13:05:37;;;;;;;4.57;2.60;;;;;;;;;;5071450;28;20509;-72
2020/12/14 13:08:04;;;;;;;4.10;2.40;;;;;;;;;;5072994;28;20503;-73
2020/12/14 13:10:35;;;;;;;4.50;2.77;;;;;;;;;;5072225;28;20457;-73
2020/12/14 13:13:06;;;;;;;4.03;2.10;;;;;;;;;;5072705;28;20464;-72
2020/12/14 13:15:36;;;;;;;4.10;2.67;;;;;;;;;;5073108;28;20465;-73
2020/12/14 13:18:06;;;;;;;4.20;2.87;;;;;;;;;;5073841;28;20460;-71
2020/12/14 13:20:50;;;;;;;3.20;1.97;;;;;;;;;;5084208;28;20484;-73
2020/12/14 13:23:27;;;;;;;5.70;1.93;;;;;;;;;;5094076;28;20457;-72
2020/12/14 13:26:01;;;;;;;3.80;2.60;;;;;;;;;;5077386;28;20461;-72
2020/12/14 13:28:30;;;;;;;5.73;2.93;;;;;;;;;;5093358;28;20492;-72
2020/12/14 13:30:57;;;;;;;4.60;2.77;;;;;;;;;;5089464;28;20459;-73
2020/12/14 13:33:25;;;;;;;5.53;2.00;;;;;;;;;;5078491;28;20452;-72
2020/12/14 13:35:52;;;;;;;3.50;2.27;;;;;;;;;;5096358;28;20456;-71
2020/12/14 13:38:19;;;;;;;4.73;2.33;;;;;;;;;;5078713;28;20803;-71
2020/12/14 13:40:46;;;;;;;4.40;2.70;;;;;;;;;;5077934;28;20509;-71
2020/12/14 13:43:34;;;;;;;5.80;2.60;;;;;;;;;;5078895;28;20517;-72
2020/12/14 13:46:01;;;;;;;4.67;2.20;;;;;;;;;;5089263;28;20452;-72
2020/12/14 13:48:28;;;;;;;2.90;1.80;;;;;;;;;;5094594;28;20492;-73
2020/12/14 13:50:59;;;;;;;5.90;2.53;;;;;;;;;;5082655;28;20456;-73
2020/12/14 13:53:27;;;;;;;4.57;2.47;;;;;;;;;;5096586;28;20473;-74
2020/12/14 13:55:56;;;;;;;4.13;2.00;;;;;;;;;;5093075;28;20947;-74
2020/12/14 13:58:25;;;;;;;2.77;1.80;;;;;;;;;;5090445;28;20735;-72
2020/12/14 14:00:53;;;;;;;4.20;1.83;;;;;;;;;;5082349;28;20910;-73
2020/12/14 14:03:27;;;;;;;4.60;2.10;;;;;;;;;;5077345;28;20467;-73
2020/12/14 14:05:54;;;;;;;4.00;1.90;;;;;;;;;;5081401;28;20483;-74
2020/12/14 14:08:21;;;;;;;7.60;2.23;;;;;;;;;;5088125;28;20481;-74
2020/12/14 14:10:48;;;;;;;3.90;1.87;;;;;;;;;;5083273;28;20448;-73
2020/12/14 14:13:16;;;;;;;6.30;2.10;;;;;;;;;;5076199;28;20749;-73
2020/12/14 14:15:43;;;;;;;3.93;1.97;;;;;;;;;;5081188;28;21131;-74
2020/12/14 14:18:20;;;;;;;4.50;2.60;;;;;;;;;;5077453;28;20456;-72
2020/12/14 14:20:50;;;;;;;5.10;2.20;;;;;;;;;;5086531;28;20520;-71
2020/12/14 14:23:19;;;;;;;2.60;1.53;;;;;;;;;;5084194;28;20460;-72
2020/12/14 14:25:47;;;;;;;8.83;2.83;;;;;;;;;;5083145;28;20453;-72
2020/12/14 14:28:14;;;;;;;6.10;3.10;;;;;;;;;;5076669;28;20484;-72
2020/12/14 14:30:41;;;;;;;4.80;2.10;;;;;;;;;;5082423;28;20459;-72
2020/12/14 14:33:10;;;;;;;4.50;1.80;;;;;;;;;;5086595;28;20449;-73
2020/12/14 14:35:38;;;;;;;3.83;1.80;;;;;;;;;;5084910;28;20468;-74
2020/12/14 14:38:07;;;;;;;6.40;2.73;;;;;;;;;;5093290;28;20512;-73
2020/12/14 14:40:37;;;;;;;4.13;2.00;;;;;;;;;;5075691;28;20502;-72
2020/12/14 14:43:05;;;;;;;9.50;4.10;;;;;;;;;;5078823;28;20448;-73
2020/12/14 14:45:32;;;;;;;2.50;1.90;;;;;;;;;;5080176;28;20559;-72
2020/12/14 14:48:08;;;;;;;5.87;1.73;;;;;;;;;;5077574;28;20483;-73
2020/12/14 14:50:48;;;;;;;9.60;2.93;;;;;;;;;;5085273;28;20542;-72
2020/12/14 14:53:18;;;;;;;3.73;1.90;;;;;;;;;;5075819;28;20713;-72
2020/12/14 14:55:49;;;;;;;5.23;2.40;;;;;;;;;;5082116;28;20460;-73